sensor_id;sensor_type;location;lat;lon;timestamp;P1;durP1;ratioP1;P2;durP2;ratioP2
51216;SDS011;37283;49.760;8.648;2024-02-26T00:00:46;1.80;;;1.02;;
51216;SDS011;37283;49.760;8.648;2024-02-26T00:03:13;1.38;;;0.88;;
51216;SDS011;37283;49.760;8.648;2024-02-26T00:05:40;1.45;;;0.80;;
51216;SDS011;37283;49.760;8.648;2024-02-26T00:08:08;3.38;;;1.10;;
51216;SDS011;37283;49.760;8.648;2024-02-26T00:10:35;1.48;;;0.98;;
51216;SDS011;37283;49.760;8.648;2024-02-26T00:13:02;2.28;;;1.05;;
51216;SDS011;37283;49.760;8.648;2024-02-26T00:15:29;1.45;;;0.80;;
51216;SDS011;37283;49.760;8.648;2024-02-26T00:17:56;1.40;;;0.90;;
51216;SDS011;37283;49.760;8.648;2024-02-26T00:20:24;1.10;;;0.90;;
51216;SDS011;37283;49.760;8.648;2024-02-26T00:22:51;1.52;;;0.98;;
51216;SDS011;37283;49.760;8.648;2024-02-26T00:25:18;2.50;;;1.00;;
51216;SDS011;37283;49.760;8.648;2024-02-26T00:27:52;0.95;;;0.80;;
51216;SDS011;37283;49.760;8.648;2024-02-26T00:30:19;2.88;;;0.90;;
51216;SDS011;37283;49.760;8.648;2024-02-26T00:32:46;1.27;;;0.90;;
51216;SDS011;37283;49.760;8.648;2024-02-26T00:35:13;2.45;;;0.80;;
51216;SDS011;37283;49.760;8.648;2024-02-26T00:37:42;1.20;;;0.70;;
51216;SDS011;37283;49.760;8.648;2024-02-26T00:40:12;1.45;;;0.65;;
51216;SDS011;37283;49.760;8.648;2024-02-26T00:42:40;2.92;;;0.95;;
51216;SDS011;37283;49.760;8.648;2024-02-26T00:45:12;2.00;;;0.80;;
51216;SDS011;37283;49.760;8.648;2024-02-26T00:47:39;4.38;;;0.88;;
51216;SDS011;37283;49.760;8.648;2024-02-26T00:50:11;1.30;;;0.70;;
51216;SDS011;37283;49.760;8.648;2024-02-26T00:52:38;1.50;;;0.80;;
51216;SDS011;37283;49.760;8.648;2024-02-26T00:55:06;1.15;;;0.68;;
51216;SDS011;37283;49.760;8.648;2024-02-26T00:57:36;2.17;;;0.85;;
51216;SDS011;37283;49.760;8.648;2024-02-26T01:00:12;1.00;;;0.70;;
51216;SDS011;37283;49.760;8.648;2024-02-26T01:02:40;1.15;;;0.70;;
51216;SDS011;37283;49.760;8.648;2024-02-26T01:05:08;1.08;;;0.70;;
51216;SDS011;37283;49.760;8.648;2024-02-26T01:07:36;2.47;;;0.88;;
51216;SDS011;37283;49.760;8.648;2024-02-26T01:10:04;1.77;;;0.85;;
51216;SDS011;37283;49.760;8.648;2024-02-26T01:12:35;1.80;;;0.70;;
51216;SDS011;37283;49.760;8.648;2024-02-26T01:15:02;1.20;;;0.73;;
51216;SDS011;37283;49.760;8.648;2024-02-26T01:17:30;2.20;;;0.85;;
51216;SDS011;37283;49.760;8.648;2024-02-26T01:19:57;1.05;;;0.80;;
51216;SDS011;37283;49.760;8.648;2024-02-26T01:22:25;1.48;;;0.80;;
51216;SDS011;37283;49.760;8.648;2024-02-26T01:24:52;1.50;;;0.70;;
51216;SDS011;37283;49.760;8.648;2024-02-26T01:27:19;1.75;;;0.63;;
51216;SDS011;37283;49.760;8.648;2024-02-26T01:29:53;1.05;;;0.70;;
51216;SDS011;37283;49.760;8.648;2024-02-26T01:32:22;0.70;;;0.70;;
51216;SDS011;37283;49.760;8.648;2024-02-26T01:34:49;2.50;;;0.80;;
51216;SDS011;37283;49.760;8.648;2024-02-26T01:37:17;1.63;;;0.65;;
51216;SDS011;37283;49.760;8.648;2024-02-26T01:39:44;1.60;;;0.88;;
51216;SDS011;37283;49.760;8.648;2024-02-26T01:42:11;1.60;;;0.60;;
51216;SDS011;37283;49.760;8.648;2024-02-26T01:44:39;1.58;;;0.90;;
51216;SDS011;37283;49.760;8.648;2024-02-26T01:47:07;1.75;;;0.80;;
51216;SDS011;37283;49.760;8.648;2024-02-26T01:49:35;1.17;;;0.80;;
51216;SDS011;37283;49.760;8.648;2024-02-26T01:52:03;1.57;;;0.80;;
51216;SDS011;37283;49.760;8.648;2024-02-26T01:54:34;1.90;;;0.70;;
51216;SDS011;37283;49.760;8.648;2024-02-26T01:57:02;1.15;;;0.70;;
51216;SDS011;37283;49.760;8.648;2024-02-26T01:59:31;3.80;;;0.98;;
51216;SDS011;37283;49.760;8.648;2024-02-26T02:01:58;1.13;;;0.73;;
51216;SDS011;37283;49.760;8.648;2024-02-26T02:04:28;4.22;;;0.88;;
51216;SDS011;37283;49.760;8.648;2024-02-26T02:06:57;4.53;;;0.90;;
51216;SDS011;37283;49.760;8.648;2024-02-26T02:09:25;3.55;;;1.05;;
51216;SDS011;37283;49.760;8.648;2024-02-26T02:11:52;2.17;;;0.90;;
51216;SDS011;37283;49.760;8.648;2024-02-26T02:14:22;1.98;;;0.82;;
51216;SDS011;37283;49.760;8.648;2024-02-26T02:16:50;1.67;;;0.80;;
51216;SDS011;37283;49.760;8.648;2024-02-26T02:19:17;1.00;;;0.80;;
51216;SDS011;37283;49.760;8.648;2024-02-26T02:21:44;1.35;;;0.80;;
51216;SDS011;37283;49.760;8.648;2024-02-26T02:24:11;3.15;;;0.82;;
51216;SDS011;37283;49.760;8.648;2024-02-26T02:26:38;1.77;;;0.80;;
51216;SDS011;37283;49.760;8.648;2024-02-26T02:29:06;1.10;;;0.70;;
51216;SDS011;37283;49.760;8.648;2024-02-26T02:31:33;1.20;;;0.65;;
51216;SDS011;37283;49.760;8.648;2024-02-26T02:34:02;1.20;;;0.70;;
51216;SDS011;37283;49.760;8.648;2024-02-26T02:36:29;1.60;;;1.17;;
51216;SDS011;37283;49.760;8.648;2024-02-26T02:38:57;1.35;;;0.80;;
51216;SDS011;37283;49.760;8.648;2024-02-26T02:41:24;1.15;;;0.80;;
51216;SDS011;37283;49.760;8.648;2024-02-26T02:43:53;1.75;;;0.82;;
51216;SDS011;37283;49.760;8.648;2024-02-26T02:46:20;1.38;;;0.90;;
51216;SDS011;37283;49.760;8.648;2024-02-26T02:48:47;1.17;;;0.80;;
51216;SDS011;37283;49.760;8.648;2024-02-26T02:51:14;2.38;;;0.85;;
51216;SDS011;37283;49.760;8.648;2024-02-26T02:53:41;1.13;;;0.80;;
51216;SDS011;37283;49.760;8.648;2024-02-26T02:56:08;2.28;;;1.00;;
51216;SDS011;37283;49.760;8.648;2024-02-26T02:58:35;1.10;;;0.80;;
51216;SDS011;37283;49.760;8.648;2024-02-26T03:01:03;2.13;;;0.95;;
51216;SDS011;37283;49.760;8.648;2024-02-26T03:03:30;1.58;;;0.90;;
51216;SDS011;37283;49.760;8.648;2024-02-26T03:05:57;1.52;;;0.85;;
51216;SDS011;37283;49.760;8.648;2024-02-26T03:08:25;1.25;;;0.98;;
51216;SDS011;37283;49.760;8.648;2024-02-26T03:10:52;2.60;;;1.10;;
51216;SDS011;37283;49.760;8.648;2024-02-26T03:13:19;3.28;;;1.38;;
51216;SDS011;37283;49.760;8.648;2024-02-26T03:15:46;2.92;;;0.93;;
51216;SDS011;37283;49.760;8.648;2024-02-26T03:18:13;2.25;;;1.20;;
51216;SDS011;37283;49.760;8.648;2024-02-26T03:20:40;1.77;;;1.02;;
51216;SDS011;37283;49.760;8.648;2024-02-26T03:23:07;2.00;;;1.17;;
51216;SDS011;37283;49.760;8.648;2024-02-26T03:25:38;1.85;;;1.10;;
51216;SDS011;37283;49.760;8.648;2024-02-26T03:28:05;2.38;;;1.25;;
51216;SDS011;37283;49.760;8.648;2024-02-26T03:30:33;1.55;;;1.02;;
51216;SDS011;37283;49.760;8.648;2024-02-26T03:33:00;1.52;;;1.00;;
51216;SDS011;37283;49.760;8.648;2024-02-26T03:35:27;1.90;;;1.15;;
51216;SDS011;37283;49.760;8.648;2024-02-26T03:37:53;1.80;;;1.10;;
51216;SDS011;37283;49.760;8.648;2024-02-26T03:40:20;2.33;;;1.45;;
51216;SDS011;37283;49.760;8.648;2024-02-26T03:42:47;2.42;;;1.23;;
51216;SDS011;37283;49.760;8.648;2024-02-26T03:45:14;2.45;;;1.38;;
51216;SDS011;37283;49.760;8.648;2024-02-26T03:47:41;4.60;;;1.35;;
51216;SDS011;37283;49.760;8.648;2024-02-26T03:50:08;2.42;;;1.48;;
51216;SDS011;37283;49.760;8.648;2024-02-26T03:52:35;4.45;;;1.70;;
51216;SDS011;37283;49.760;8.648;2024-02-26T03:55:02;2.83;;;1.50;;
51216;SDS011;37283;49.760;8.648;2024-02-26T03:57:29;3.10;;;1.40;;
51216;SDS011;37283;49.760;8.648;2024-02-26T03:59:56;2.30;;;1.20;;
51216;SDS011;37283;49.760;8.648;2024-02-26T04:02:23;3.08;;;1.50;;
51216;SDS011;37283;49.760;8.648;2024-02-26T04:04:51;3.90;;;1.60;;
51216;SDS011;37283;49.760;8.648;2024-02-26T04:07:18;2.63;;;1.35;;
51216;SDS011;37283;49.760;8.648;2024-02-26T04:09:45;2.58;;;1.30;;
51216;SDS011;37283;49.760;8.648;2024-02-26T04:12:12;3.63;;;1.40;;
51216;SDS011;37283;49.760;8.648;2024-02-26T04:14:39;5.18;;;1.67;;
51216;SDS011;37283;49.760;8.648;2024-02-26T04:17:05;1.98;;;1.33;;
51216;SDS011;37283;49.760;8.648;2024-02-26T04:19:32;2.47;;;1.30;;
51216;SDS011;37283;49.760;8.648;2024-02-26T04:21:59;2.67;;;1.40;;
51216;SDS011;37283;49.760;8.648;2024-02-26T04:24:27;4.50;;;1.40;;
51216;SDS011;37283;49.760;8.648;2024-02-26T04:26:53;4.07;;;1.58;;
51216;SDS011;37283;49.760;8.648;2024-02-26T04:29:22;2.15;;;1.40;;
51216;SDS011;37283;49.760;8.648;2024-02-26T04:31:49;3.08;;;1.20;;
51216;SDS011;37283;49.760;8.648;2024-02-26T04:34:18;3.47;;;1.60;;
51216;SDS011;37283;49.760;8.648;2024-02-26T04:36:45;2.13;;;1.08;;
51216;SDS011;37283;49.760;8.648;2024-02-26T04:39:14;3.45;;;1.20;;
51216;SDS011;37283;49.760;8.648;2024-02-26T04:41:41;2.58;;;1.20;;
51216;SDS011;37283;49.760;8.648;2024-02-26T04:44:08;2.67;;;1.33;;
51216;SDS011;37283;49.760;8.648;2024-02-26T04:46:35;2.58;;;1.23;;
51216;SDS011;37283;49.760;8.648;2024-02-26T04:49:01;2.58;;;1.40;;
51216;SDS011;37283;49.760;8.648;2024-02-26T04:51:28;2.65;;;1.23;;
51216;SDS011;37283;49.760;8.648;2024-02-26T04:53:55;1.23;;;0.93;;
51216;SDS011;37283;49.760;8.648;2024-02-26T04:56:21;1.55;;;1.13;;
51216;SDS011;37283;49.760;8.648;2024-02-26T04:58:48;1.52;;;1.00;;
51216;SDS011;37283;49.760;8.648;2024-02-26T05:01:15;1.70;;;1.08;;
51216;SDS011;37283;49.760;8.648;2024-02-26T05:03:43;2.33;;;1.30;;
51216;SDS011;37283;49.760;8.648;2024-02-26T05:06:10;1.77;;;1.10;;
51216;SDS011;37283;49.760;8.648;2024-02-26T05:08:37;3.00;;;1.40;;
51216;SDS011;37283;49.760;8.648;2024-02-26T05:11:04;1.85;;;1.10;;
51216;SDS011;37283;49.760;8.648;2024-02-26T05:13:32;2.75;;;1.23;;
51216;SDS011;37283;49.760;8.648;2024-02-26T05:15:59;1.02;;;0.90;;
51216;SDS011;37283;49.760;8.648;2024-02-26T05:18:26;6.38;;;1.00;;
51216;SDS011;37283;49.760;8.648;2024-02-26T05:20:53;1.00;;;0.70;;
51216;SDS011;37283;49.760;8.648;2024-02-26T05:23:20;2.55;;;1.02;;
51216;SDS011;37283;49.760;8.648;2024-02-26T05:25:49;1.65;;;1.10;;
51216;SDS011;37283;49.760;8.648;2024-02-26T05:28:15;2.50;;;1.00;;
51216;SDS011;37283;49.760;8.648;2024-02-26T05:30:42;1.80;;;1.08;;
51216;SDS011;37283;49.760;8.648;2024-02-26T05:33:09;1.50;;;1.10;;
51216;SDS011;37283;49.760;8.648;2024-02-26T05:35:37;2.05;;;1.08;;
51216;SDS011;37283;49.760;8.648;2024-02-26T05:38:04;1.10;;;0.90;;
51216;SDS011;37283;49.760;8.648;2024-02-26T05:40:30;3.22;;;1.80;;
51216;SDS011;37283;49.760;8.648;2024-02-26T05:42:57;3.70;;;3.28;;
51216;SDS011;37283;49.760;8.648;2024-02-26T05:45:23;7.75;;;6.72;;
51216;SDS011;37283;49.760;8.648;2024-02-26T05:47:50;10.73;;;7.93;;
51216;SDS011;37283;49.760;8.648;2024-02-26T05:50:17;7.72;;;5.35;;
51216;SDS011;37283;49.760;8.648;2024-02-26T05:52:43;6.75;;;4.90;;
51216;SDS011;37283;49.760;8.648;2024-02-26T05:55:10;10.88;;;6.93;;
51216;SDS011;37283;49.760;8.648;2024-02-26T05:57:37;3.72;;;2.28;;
51216;SDS011;37283;49.760;8.648;2024-02-26T06:00:03;7.97;;;4.07;;
51216;SDS011;37283;49.760;8.648;2024-02-26T06:02:38;4.20;;;3.65;;
51216;SDS011;37283;49.760;8.648;2024-02-26T06:05:04;3.40;;;2.70;;
51216;SDS011;37283;49.760;8.648;2024-02-26T06:07:33;4.72;;;3.28;;
51216;SDS011;37283;49.760;8.648;2024-02-26T06:10:00;6.82;;;6.13;;
51216;SDS011;37283;49.760;8.648;2024-02-26T06:12:26;5.30;;;4.55;;
51216;SDS011;37283;49.760;8.648;2024-02-26T06:14:54;3.35;;;1.83;;
51216;SDS011;37283;49.760;8.648;2024-02-26T06:17:21;4.40;;;3.10;;
51216;SDS011;37283;49.760;8.648;2024-02-26T06:19:47;5.10;;;3.67;;
51216;SDS011;37283;49.760;8.648;2024-02-26T06:22:14;2.35;;;0.90;;
51216;SDS011;37283;49.760;8.648;2024-02-26T06:24:40;3.10;;;1.85;;
51216;SDS011;37283;49.760;8.648;2024-02-26T06:27:07;1.60;;;1.00;;
51216;SDS011;37283;49.760;8.648;2024-02-26T06:29:34;10.70;;;8.73;;
51216;SDS011;37283;49.760;8.648;2024-02-26T06:32:01;6.80;;;6.10;;
51216;SDS011;37283;49.760;8.648;2024-02-26T06:34:28;2.50;;;1.92;;
51216;SDS011;37283;49.760;8.648;2024-02-26T06:36:54;3.72;;;1.67;;
51216;SDS011;37283;49.760;8.648;2024-02-26T06:39:21;2.80;;;1.10;;
51216;SDS011;37283;49.760;8.648;2024-02-26T06:41:48;4.05;;;1.67;;
51216;SDS011;37283;49.760;8.648;2024-02-26T06:44:14;1.55;;;1.00;;
51216;SDS011;37283;49.760;8.648;2024-02-26T06:46:41;1.48;;;1.25;;
51216;SDS011;37283;49.760;8.648;2024-02-26T06:49:07;2.35;;;1.65;;
51216;SDS011;37283;49.760;8.648;2024-02-26T06:51:34;3.25;;;1.50;;
51216;SDS011;37283;49.760;8.648;2024-02-26T06:54:01;1.45;;;0.80;;
51216;SDS011;37283;49.760;8.648;2024-02-26T06:56:27;1.88;;;1.50;;
51216;SDS011;37283;49.760;8.648;2024-02-26T06:58:54;1.58;;;1.27;;
51216;SDS011;37283;49.760;8.648;2024-02-26T07:01:21;1.60;;;1.40;;
51216;SDS011;37283;49.760;8.648;2024-02-26T07:03:47;1.10;;;0.70;;
51216;SDS011;37283;49.760;8.648;2024-02-26T07:06:14;1.67;;;0.60;;
51216;SDS011;37283;49.760;8.648;2024-02-26T07:08:41;0.75;;;0.60;;
51216;SDS011;37283;49.760;8.648;2024-02-26T07:11:07;2.28;;;1.10;;
51216;SDS011;37283;49.760;8.648;2024-02-26T07:13:35;0.98;;;0.65;;
51216;SDS011;37283;49.760;8.648;2024-02-26T07:16:01;1.73;;;0.82;;
51216;SDS011;37283;49.760;8.648;2024-02-26T07:18:28;3.05;;;1.10;;
51216;SDS011;37283;49.760;8.648;2024-02-26T07:20:55;3.75;;;1.02;;
51216;SDS011;37283;49.760;8.648;2024-02-26T07:23:22;1.80;;;0.90;;
51216;SDS011;37283;49.760;8.648;2024-02-26T07:25:49;3.45;;;1.23;;
51216;SDS011;37283;49.760;8.648;2024-02-26T07:28:19;5.00;;;1.40;;
51216;SDS011;37283;49.760;8.648;2024-02-26T07:30:45;4.10;;;0.80;;
51216;SDS011;37283;49.760;8.648;2024-02-26T07:33:13;4.53;;;0.95;;
51216;SDS011;37283;49.760;8.648;2024-02-26T07:35:40;5.70;;;0.90;;
51216;SDS011;37283;49.760;8.648;2024-02-26T07:38:07;9.73;;;5.72;;
51216;SDS011;37283;49.760;8.648;2024-02-26T07:40:45;7.05;;;4.75;;
51216;SDS011;37283;49.760;8.648;2024-02-26T07:43:24;6.00;;;1.63;;
51216;SDS011;37283;49.760;8.648;2024-02-26T07:45:51;1.30;;;0.93;;
51216;SDS011;37283;49.760;8.648;2024-02-26T07:48:17;4.35;;;1.35;;
51216;SDS011;37283;49.760;8.648;2024-02-26T07:50:44;1.90;;;1.13;;
51216;SDS011;37283;49.760;8.648;2024-02-26T07:53:11;4.80;;;0.98;;
51216;SDS011;37283;49.760;8.648;2024-02-26T07:55:37;2.58;;;0.88;;
51216;SDS011;37283;49.760;8.648;2024-02-26T07:58:04;3.47;;;0.63;;
51216;SDS011;37283;49.760;8.648;2024-02-26T08:00:34;1.70;;;0.70;;
51216;SDS011;37283;49.760;8.648;2024-02-26T08:03:00;3.35;;;1.02;;
51216;SDS011;37283;49.760;8.648;2024-02-26T08:05:27;3.60;;;0.73;;
51216;SDS011;37283;49.760;8.648;2024-02-26T08:07:54;1.92;;;0.80;;
51216;SDS011;37283;49.760;8.648;2024-02-26T08:10:21;1.15;;;0.60;;
51216;SDS011;37283;49.760;8.648;2024-02-26T08:12:47;2.97;;;0.90;;
51216;SDS011;37283;49.760;8.648;2024-02-26T08:15:14;2.95;;;0.80;;
51216;SDS011;37283;49.760;8.648;2024-02-26T08:17:40;2.13;;;0.90;;
51216;SDS011;37283;49.760;8.648;2024-02-26T08:20:07;0.80;;;0.63;;
51216;SDS011;37283;49.760;8.648;2024-02-26T08:22:34;2.22;;;1.52;;
51216;SDS011;37283;49.760;8.648;2024-02-26T08:25:01;1.02;;;0.93;;
51216;SDS011;37283;49.760;8.648;2024-02-26T08:27:32;1.55;;;1.00;;
51216;SDS011;37283;49.760;8.648;2024-02-26T08:29:59;1.67;;;0.80;;
51216;SDS011;37283;49.760;8.648;2024-02-26T08:32:27;1.23;;;0.70;;
51216;SDS011;37283;49.760;8.648;2024-02-26T08:34:53;1.25;;;0.82;;
51216;SDS011;37283;49.760;8.648;2024-02-26T08:37:20;0.98;;;0.80;;
51216;SDS011;37283;49.760;8.648;2024-02-26T08:39:47;4.00;;;0.73;;
51216;SDS011;37283;49.760;8.648;2024-02-26T08:42:13;1.70;;;0.98;;
51216;SDS011;37283;49.760;8.648;2024-02-26T08:44:40;0.90;;;0.80;;
51216;SDS011;37283;49.760;8.648;2024-02-26T08:47:06;2.08;;;1.20;;
51216;SDS011;37283;49.760;8.648;2024-02-26T08:49:33;1.35;;;0.77;;
51216;SDS011;37283;49.760;8.648;2024-02-26T08:51:59;1.05;;;0.95;;
51216;SDS011;37283;49.760;8.648;2024-02-26T08:54:26;1.83;;;1.00;;
51216;SDS011;37283;49.760;8.648;2024-02-26T08:56:52;2.33;;;1.15;;
51216;SDS011;37283;49.760;8.648;2024-02-26T08:59:19;1.92;;;1.10;;
51216;SDS011;37283;49.760;8.648;2024-02-26T09:04:15;3.33;;;1.27;;
51216;SDS011;37283;49.760;8.648;2024-02-26T09:06:41;1.77;;;1.20;;
51216;SDS011;37283;49.760;8.648;2024-02-26T09:09:08;1.75;;;1.40;;
51216;SDS011;37283;49.760;8.648;2024-02-26T09:11:35;1.60;;;1.17;;
51216;SDS011;37283;49.760;8.648;2024-02-26T09:14:01;2.78;;;1.60;;
51216;SDS011;37283;49.760;8.648;2024-02-26T09:16:28;5.57;;;1.73;;
51216;SDS011;37283;49.760;8.648;2024-02-26T09:18:54;6.95;;;2.42;;
51216;SDS011;37283;49.760;8.648;2024-02-26T09:21:21;2.40;;;1.70;;
51216;SDS011;37283;49.760;8.648;2024-02-26T09:23:50;4.05;;;1.88;;
51216;SDS011;37283;49.760;8.648;2024-02-26T09:26:17;4.32;;;2.00;;
51216;SDS011;37283;49.760;8.648;2024-02-26T09:28:46;4.55;;;2.00;;
51216;SDS011;37283;49.760;8.648;2024-02-26T09:31:14;2.67;;;1.83;;
51216;SDS011;37283;49.760;8.648;2024-02-26T09:33:42;2.45;;;1.88;;
51216;SDS011;37283;49.760;8.648;2024-02-26T09:36:09;3.70;;;1.67;;
51216;SDS011;37283;49.760;8.648;2024-02-26T09:38:37;2.55;;;2.00;;
51216;SDS011;37283;49.760;8.648;2024-02-26T09:41:21;3.70;;;2.20;;
51216;SDS011;37283;49.760;8.648;2024-02-26T09:43:48;3.25;;;1.90;;
51216;SDS011;37283;49.760;8.648;2024-02-26T09:46:15;3.85;;;2.10;;
51216;SDS011;37283;49.760;8.648;2024-02-26T09:48:43;4.07;;;2.57;;
51216;SDS011;37283;49.760;8.648;2024-02-26T09:51:11;4.63;;;2.10;;
51216;SDS011;37283;49.760;8.648;2024-02-26T09:53:41;5.38;;;1.90;;
51216;SDS011;37283;49.760;8.648;2024-02-26T09:56:12;5.50;;;1.90;;
51216;SDS011;37283;49.760;8.648;2024-02-26T09:58:39;5.10;;;2.20;;
51216;SDS011;37283;49.760;8.648;2024-02-26T10:01:13;3.20;;;1.98;;
51216;SDS011;37283;49.760;8.648;2024-02-26T10:03:43;3.85;;;2.00;;
51216;SDS011;37283;49.760;8.648;2024-02-26T10:06:12;3.83;;;2.22;;
51216;SDS011;37283;49.760;8.648;2024-02-26T10:08:39;1.77;;;1.50;;
51216;SDS011;37283;49.760;8.648;2024-02-26T10:11:09;3.33;;;1.60;;
51216;SDS011;37283;49.760;8.648;2024-02-26T10:13:36;4.07;;;2.17;;
51216;SDS011;37283;49.760;8.648;2024-02-26T10:16:03;3.65;;;1.92;;
51216;SDS011;37283;49.760;8.648;2024-02-26T10:18:51;3.05;;;1.65;;
51216;SDS011;37283;49.760;8.648;2024-02-26T10:21:25;4.43;;;1.50;;
51216;SDS011;37283;49.760;8.648;2024-02-26T10:23:52;3.38;;;1.88;;
51216;SDS011;37283;49.760;8.648;2024-02-26T10:26:18;3.80;;;1.63;;
51216;SDS011;37283;49.760;8.648;2024-02-26T10:28:45;2.13;;;1.48;;
51216;SDS011;37283;49.760;8.648;2024-02-26T10:31:14;2.40;;;1.58;;
51216;SDS011;37283;49.760;8.648;2024-02-26T10:33:42;2.72;;;1.73;;
51216;SDS011;37283;49.760;8.648;2024-02-26T10:36:09;4.23;;;1.77;;
51216;SDS011;37283;49.760;8.648;2024-02-26T10:38:36;2.35;;;1.67;;
51216;SDS011;37283;49.760;8.648;2024-02-26T10:41:04;3.45;;;1.58;;
51216;SDS011;37283;49.760;8.648;2024-02-26T10:43:31;2.22;;;1.50;;
51216;SDS011;37283;49.760;8.648;2024-02-26T10:45:58;2.75;;;1.45;;
51216;SDS011;37283;49.760;8.648;2024-02-26T10:48:24;2.75;;;1.50;;
51216;SDS011;37283;49.760;8.648;2024-02-26T10:50:52;2.78;;;1.48;;
51216;SDS011;37283;49.760;8.648;2024-02-26T10:53:22;3.78;;;1.73;;
51216;SDS011;37283;49.760;8.648;2024-02-26T10:55:52;3.88;;;1.67;;
51216;SDS011;37283;49.760;8.648;2024-02-26T10:58:21;2.15;;;1.75;;
51216;SDS011;37283;49.760;8.648;2024-02-26T11:00:49;5.13;;;2.38;;
51216;SDS011;37283;49.760;8.648;2024-02-26T11:03:17;1.80;;;1.37;;
51216;SDS011;37283;49.760;8.648;2024-02-26T11:08:19;5.38;;;1.77;;
51216;SDS011;37283;49.760;8.648;2024-02-26T11:10:48;2.28;;;1.58;;
51216;SDS011;37283;49.760;8.648;2024-02-26T11:13:15;2.03;;;1.38;;
51216;SDS011;37283;49.760;8.648;2024-02-26T11:15:48;1.90;;;1.23;;
51216;SDS011;37283;49.760;8.648;2024-02-26T11:18:16;2.28;;;1.58;;
51216;SDS011;37283;49.760;8.648;2024-02-26T11:20:43;3.87;;;1.80;;
51216;SDS011;37283;49.760;8.648;2024-02-26T11:23:11;2.42;;;1.48;;
51216;SDS011;37283;49.760;8.648;2024-02-26T11:25:38;8.63;;;2.00;;
51216;SDS011;37283;49.760;8.648;2024-02-26T11:28:11;17.77;;;3.53;;
51216;SDS011;37283;49.760;8.648;2024-02-26T11:30:42;9.82;;;1.63;;
51216;SDS011;37283;49.760;8.648;2024-02-26T11:33:11;5.80;;;1.70;;
51216;SDS011;37283;49.760;8.648;2024-02-26T11:35:39;5.28;;;1.63;;
51216;SDS011;37283;49.760;8.648;2024-02-26T11:38:06;2.60;;;1.20;;
51216;SDS011;37283;49.760;8.648;2024-02-26T11:40:37;2.60;;;1.25;;
51216;SDS011;37283;49.760;8.648;2024-02-26T11:43:07;2.33;;;1.50;;
51216;SDS011;37283;49.760;8.648;2024-02-26T11:50:50;1.92;;;1.50;;
51216;SDS011;37283;49.760;8.648;2024-02-26T11:53:21;2.55;;;1.60;;
51216;SDS011;37283;49.760;8.648;2024-02-26T11:59:04;1.70;;;1.40;;
51216;SDS011;37283;49.760;8.648;2024-02-26T12:01:35;2.13;;;1.50;;
51216;SDS011;37283;49.760;8.648;2024-02-26T12:04:06;1.92;;;1.40;;
51216;SDS011;37283;49.760;8.648;2024-02-26T12:06:40;2.90;;;1.60;;
51216;SDS011;37283;49.760;8.648;2024-02-26T12:09:31;2.63;;;1.52;;
51216;SDS011;37283;49.760;8.648;2024-02-26T12:11:59;2.13;;;1.60;;
51216;SDS011;37283;49.760;8.648;2024-02-26T12:14:27;3.10;;;1.85;;
51216;SDS011;37283;49.760;8.648;2024-02-26T12:16:53;2.70;;;1.48;;
51216;SDS011;37283;49.760;8.648;2024-02-26T12:19:21;2.08;;;1.50;;
51216;SDS011;37283;49.760;8.648;2024-02-26T12:21:51;2.13;;;1.40;;
51216;SDS011;37283;49.760;8.648;2024-02-26T12:24:19;3.38;;;1.30;;
51216;SDS011;37283;49.760;8.648;2024-02-26T12:26:47;2.47;;;1.70;;
51216;SDS011;37283;49.760;8.648;2024-02-26T12:29:14;2.13;;;1.30;;
51216;SDS011;37283;49.760;8.648;2024-02-26T12:31:40;1.95;;;1.10;;
51216;SDS011;37283;49.760;8.648;2024-02-26T12:34:07;3.15;;;1.30;;
51216;SDS011;37283;49.760;8.648;2024-02-26T12:36:36;3.40;;;1.73;;
51216;SDS011;37283;49.760;8.648;2024-02-26T12:39:04;2.15;;;1.60;;
51216;SDS011;37283;49.760;8.648;2024-02-26T12:41:34;1.95;;;1.25;;
51216;SDS011;37283;49.760;8.648;2024-02-26T12:44:01;2.95;;;1.90;;
51216;SDS011;37283;49.760;8.648;2024-02-26T12:46:27;2.25;;;1.75;;
51216;SDS011;37283;49.760;8.648;2024-02-26T12:48:58;2.53;;;1.88;;
51216;SDS011;37283;49.760;8.648;2024-02-26T12:51:26;1.83;;;1.60;;
51216;SDS011;37283;49.760;8.648;2024-02-26T12:53:53;3.80;;;1.77;;
51216;SDS011;37283;49.760;8.648;2024-02-26T12:56:21;3.88;;;2.03;;
51216;SDS011;37283;49.760;8.648;2024-02-26T12:58:47;2.85;;;2.03;;
51216;SDS011;37283;49.760;8.648;2024-02-26T13:01:15;2.65;;;1.60;;
51216;SDS011;37283;49.760;8.648;2024-02-26T13:03:43;3.03;;;1.93;;
51216;SDS011;37283;49.760;8.648;2024-02-26T13:06:10;3.00;;;2.00;;
51216;SDS011;37283;49.760;8.648;2024-02-26T13:08:37;2.65;;;1.98;;
51216;SDS011;37283;49.760;8.648;2024-02-26T13:11:04;2.72;;;1.90;;
51216;SDS011;37283;49.760;8.648;2024-02-26T13:13:32;3.00;;;2.03;;
51216;SDS011;37283;49.760;8.648;2024-02-26T13:16:02;2.25;;;1.73;;
51216;SDS011;37283;49.760;8.648;2024-02-26T13:18:30;2.90;;;2.10;;
51216;SDS011;37283;49.760;8.648;2024-02-26T13:21:09;3.80;;;2.10;;
51216;SDS011;37283;49.760;8.648;2024-02-26T13:23:37;2.97;;;2.47;;
51216;SDS011;37283;49.760;8.648;2024-02-26T13:26:05;2.85;;;2.38;;
51216;SDS011;37283;49.760;8.648;2024-02-26T13:28:31;3.85;;;2.83;;
51216;SDS011;37283;49.760;8.648;2024-02-26T13:30:59;4.22;;;2.58;;
51216;SDS011;37283;49.760;8.648;2024-02-26T13:33:27;3.08;;;2.50;;
51216;SDS011;37283;49.760;8.648;2024-02-26T13:35:56;4.05;;;2.58;;
51216;SDS011;37283;49.760;8.648;2024-02-26T13:38:22;2.92;;;2.40;;
51216;SDS011;37283;49.760;8.648;2024-02-26T13:40:50;2.92;;;2.40;;
51216;SDS011;37283;49.760;8.648;2024-02-26T13:43:17;3.92;;;3.20;;
51216;SDS011;37283;49.760;8.648;2024-02-26T13:45:44;3.38;;;2.50;;
51216;SDS011;37283;49.760;8.648;2024-02-26T13:48:11;4.97;;;2.70;;
51216;SDS011;37283;49.760;8.648;2024-02-26T13:50:39;4.22;;;2.58;;
51216;SDS011;37283;49.760;8.648;2024-02-26T13:53:06;3.33;;;2.40;;
51216;SDS011;37283;49.760;8.648;2024-02-26T13:55:33;3.65;;;2.55;;
51216;SDS011;37283;49.760;8.648;2024-02-26T13:57:59;4.65;;;2.50;;
51216;SDS011;37283;49.760;8.648;2024-02-26T14:00:30;4.93;;;2.17;;
51216;SDS011;37283;49.760;8.648;2024-02-26T14:03:01;3.10;;;2.53;;
51216;SDS011;37283;49.760;8.648;2024-02-26T14:05:28;3.47;;;2.75;;
51216;SDS011;37283;49.760;8.648;2024-02-26T14:07:55;2.90;;;2.30;;
51216;SDS011;37283;49.760;8.648;2024-02-26T14:10:22;3.70;;;2.72;;
51216;SDS011;37283;49.760;8.648;2024-02-26T14:12:48;3.55;;;2.55;;
51216;SDS011;37283;49.760;8.648;2024-02-26T14:15:15;7.60;;;2.90;;
51216;SDS011;37283;49.760;8.648;2024-02-26T14:17:42;3.25;;;2.70;;
51216;SDS011;37283;49.760;8.648;2024-02-26T14:20:10;5.38;;;2.50;;
51216;SDS011;37283;49.760;8.648;2024-02-26T14:22:36;3.83;;;2.55;;
51216;SDS011;37283;49.760;8.648;2024-02-26T14:25:03;4.25;;;3.10;;
51216;SDS011;37283;49.760;8.648;2024-02-26T14:27:30;4.57;;;3.30;;
51216;SDS011;37283;49.760;8.648;2024-02-26T14:29:57;4.10;;;2.88;;
51216;SDS011;37283;49.760;8.648;2024-02-26T14:32:23;3.78;;;2.67;;
51216;SDS011;37283;49.760;8.648;2024-02-26T14:34:50;3.83;;;2.67;;
51216;SDS011;37283;49.760;8.648;2024-02-26T14:37:17;5.18;;;2.88;;
51216;SDS011;37283;49.760;8.648;2024-02-26T14:39:43;4.28;;;3.00;;
51216;SDS011;37283;49.760;8.648;2024-02-26T14:42:10;3.63;;;2.70;;
51216;SDS011;37283;49.760;8.648;2024-02-26T14:44:37;4.45;;;2.72;;
51216;SDS011;37283;49.760;8.648;2024-02-26T14:47:03;5.85;;;3.65;;
51216;SDS011;37283;49.760;8.648;2024-02-26T14:49:30;5.60;;;3.50;;
51216;SDS011;37283;49.760;8.648;2024-02-26T14:51:58;5.10;;;3.63;;
51216;SDS011;37283;49.760;8.648;2024-02-26T14:54:24;5.68;;;3.25;;
51216;SDS011;37283;49.760;8.648;2024-02-26T14:56:51;7.68;;;3.47;;
51216;SDS011;37283;49.760;8.648;2024-02-26T14:59:18;7.47;;;3.70;;
51216;SDS011;37283;49.760;8.648;2024-02-26T15:01:44;4.85;;;3.55;;
51216;SDS011;37283;49.760;8.648;2024-02-26T15:04:13;3.53;;;3.17;;